Time;durP1;ratioP1;P1;durP2;ratioP2;P2;SDS_P1;SDS_P2;PMS_P1;PMS_P2;Temp;Humidity;BMP_temperature;BMP_pressure;BME280_temperature;BME280_humidity;BME280_pressure;Samples;Min_cycle;Max_cycle;Signal;HPM_P1;HPM_P2
2023/06/29 00:02:14;;;;;;;18.08;12.48;;;;;;;17.36;82.79;98323.28;4978985;28;20140;-95
2023/06/29 00:04:41;;;;;;;19.33;11.82;;;;;;;17.42;82.56;98327.28;4963690;28;20038;-93
2023/06/29 00:07:07;;;;;;;19.00;12.18;;;;;;;17.38;82.71;98323.66;4979310;28;20036;-91
2023/06/29 00:09:48;;;;;;;20.50;13.38;;;;;;;17.46;82.98;98339.16;4961755;28;20141;-93
2023/06/29 00:12:29;;;;;;;21.80;11.77;;;;;;;17.29;82.87;98301.91;4953345;28;20038;-94
2023/06/29 00:15:20;;;;;;;16.48;12.20;;;;;;;17.61;82.32;98345.56;4963210;28;20128;-93
2023/06/29 00:17:47;;;;;;;16.27;11.35;;;;;;;17.64;81.70;98346.75;4946864;28;20038;-93
2023/06/29 00:20:38;;;;;;;20.00;11.63;;;;;;;17.57;81.04;98340.00;4956738;28;20073;-93
2023/06/29 00:23:04;;;;;;;15.80;11.60;;;;;;;17.57;81.75;98340.00;4947528;28;20039;-94
2023/06/29 00:25:30;;;;;;;17.77;12.30;;;;;;;17.46;82.04;98325.31;4948747;28;20042;-92
2023/06/29 00:27:56;;;;;;;13.60;10.82;;;;;;;17.56;81.11;98338.44;4998816;28;20185;-94
2023/06/29 00:30:32;;;;;;;14.67;11.37;;;;;;;17.70;81.58;98353.53;4948091;28;20038;-95
2023/06/29 00:33:14;;;;;;;13.75;10.55;;;;;;;17.54;81.78;98312.34;4958172;28;20043;-93
2023/06/29 00:36:47;;;;;;;14.93;11.48;;;;;;;17.79;82.23;98338.22;4929098;28;20517;-92
2023/06/29 00:39:13;;;;;;;16.92;11.25;;;;;;;17.61;81.58;98304.94;4958685;29;20078;-93
2023/06/29 00:41:39;;;;;;;15.60;11.73;;;;;;;17.63;81.57;98312.81;4975741;28;20042;-91
2023/06/29 00:44:05;;;;;;;15.93;11.45;;;;;;;17.77;81.90;98321.22;4994223;23;20816;-94
2023/06/29 00:46:31;;;;;;;16.80;11.63;;;;;;;17.80;80.93;98320.44;4890591;29;20083;-90
2023/06/29 00:48:57;;;;;;;15.85;10.90;;;;;;;17.89;81.02;98333.16;4917548;29;20044;-90
2023/06/29 00:51:47;;;;;;;14.75;11.38;;;;;;;17.57;80.84;98279.22;4900837;29;20548;-95
2023/06/29 00:55:17;;;;;;;20.30;11.55;;;;;;;17.86;80.66;98320.91;4955889;29;20179;-90
2023/06/29 00:58:08;;;;;;;18.95;11.88;;;;;;;17.82;81.14;98315.34;4914853;29;20088;-89
2023/06/29 01:00:39;;;;;;;15.27;10.77;;;;;;;17.75;81.21;98309.75;4929818;29;20039;-94
2023/06/29 01:04:17;;;;;;;15.18;11.27;;;;;;;17.78;82.01;98317.31;4952760;29;20044;-94
2023/06/29 01:07:33;;;;;;;17.30;12.02;;;;;;;17.73;81.33;98303.00;4921940;29;20615;-92
2023/06/29 01:10:23;;;;;;;16.73;12.32;;;;;;;17.89;81.60;98322.09;4883092;29;20053;-90
2023/06/29 01:13:09;;;;;;;17.90;12.13;;;;;;;17.88;81.35;98328.78;4887051;29;20048;-91
2023/06/29 01:15:50;;;;;;;22.80;12.80;;;;;;;17.38;81.16;98235.28;4908883;29;20039;-89
2023/06/29 01:18:19;;;;;;;19.90;12.38;;;;;;;17.57;81.58;98250.78;4895737;29;20052;-90
2023/06/29 01:20:50;;;;;;;19.25;12.80;;;;;;;17.91;81.67;98309.44;4878029;29;20530;-91
2023/06/29 01:23:26;;;;;;;24.17;14.88;;;;;;;17.71;81.58;98283.25;4885373;29;20044;-94
2023/06/29 01:25:56;;;;;;;25.73;17.20;;;;;;;17.80;81.79;98320.44;4861170;29;20060;-92
2023/06/29 01:28:28;;;;;;;26.27;17.52;;;;;;;17.87;82.21;98316.94;4880667;29;20629;-92
2023/06/29 01:30:55;;;;;;;27.60;18.15;;;;;;;17.90;82.01;98307.09;4873414;29;20036;-91
2023/06/29 01:33:38;;;;;;;34.15;19.42;;;;;;;17.68;81.52;98272.97;4857059;29;20052;-91
2023/06/29 01:36:13;;;;;;;31.15;19.75;;;;;;;17.90;81.70;98312.63;4881936;29;20064;-91
2023/06/29 01:38:50;;;;;;;35.05;22.13;;;;;;;17.80;81.73;98303.06;5018478;23;20539;-91
2023/06/29 01:41:54;;;;;;;33.42;20.95;;;;;;;17.62;81.78;98275.31;4963259;28;20463;-91
2023/06/29 01:44:20;;;;;;;36.63;22.15;;;;;;;17.41;82.48;98259.38;4959222;28;20053;-95
2023/06/29 01:46:48;;;;;;;36.83;23.67;;;;;;;17.63;82.93;98287.94;4961774;28;20038;-92
2023/06/29 01:49:14;;;;;;;35.42;22.73;;;;;;;17.56;83.10;98294.22;4941591;23;20048;-94
2023/06/29 01:51:40;;;;;;;32.03;21.90;;;;;;;17.41;83.58;98272.38;4902811;29;20044;-92
2023/06/29 01:57:58;;;;;;;32.42;20.75;;;;;;;17.44;84.26;98311.09;4876104;29;20286;-94
2023/06/29 02:00:24;;;;;;;34.27;20.13;;;;;;;17.38;84.20;98304.34;4860289;29;20045;-89
2023/06/29 02:02:51;;;;;;;;;;;;;;;17.35;84.18;98314.19;4854759;29;20045;-90
2023/06/29 02:05:19;;;;;;;27.27;18.02;;;;;;;17.25;84.21;98305.81;4831068;29;19931;-93
2023/06/29 02:07:45;;;;;;;25.60;16.45;;;;;;;17.27;84.28;98318.06;4870760;29;20427;-93
2023/06/29 02:10:13;;;;;;;26.55;15.82;;;;;;;17.12;84.12;98308.88;4859638;29;20032;-95
2023/06/29 02:12:40;;;;;;;22.40;16.33;;;;;;;16.95;84.35;98286.63;4873953;29;20128;-92
2023/06/29 02:15:06;;;;;;;;;;;;;;;17.18;84.15;98325.09;4879220;29;20293;-92
2023/06/29 02:17:57;;;;;;;19.17;12.15;;;;;;;16.91;83.40;98294.88;4856727;29;19924;-89
2023/06/29 02:20:24;;;;;;;21.23;12.90;;;;;;;17.07;83.71;98322.22;4858650;29;20476;-90
2023/06/29 02:22:50;;;;;;;22.03;12.50;;;;;;;17.11;83.92;98320.28;4866602;29;20049;-91
2023/06/29 02:25:24;;;;;;;18.25;11.55;;;;;;;16.56;83.04;98253.91;4876592;29;20041;-92
2023/06/29 02:28:14;;;;;;;14.68;10.88;;;;;;;16.98;83.20;98322.53;4862521;29;20415;-93
2023/06/29 02:30:40;;;;;;;14.70;10.68;;;;;;;16.89;83.63;98295.25;4811029;29;20054;-92
2023/06/29 02:33:06;;;;;;;15.23;10.20;;;;;;;17.09;82.49;98336.47;4827827;29;20049;-88
2023/06/29 02:35:32;;;;;;;18.37;10.73;;;;;;;17.07;83.00;98342.34;4828828;29;20298;-92
2023/06/29 02:37:59;;;;;;;16.40;10.05;;;;;;;17.03;82.23;98340.75;4833611;29;20053;-93
2023/06/29 02:40:25;;;;;;;16.63;10.03;;;;;;;16.97;82.41;98342.25;4830326;29;20093;-90
2023/06/29 02:42:51;;;;;;;15.63;10.23;;;;;;;16.98;82.47;98330.81;4831823;29;20045;-89
2023/06/29 02:45:17;;;;;;;14.10;10.27;;;;;;;16.95;81.96;98330.78;4846226;29;20282;-89
2023/06/29 02:47:43;;;;;;;16.50;9.50;;;;;;;17.03;82.03;98358.09;4830241;29;20045;-93
2023/06/29 02:50:38;;;;;;;18.40;10.10;;;;;;;16.76;82.08;98318.78;4851977;29;20312;-89
2023/06/29 02:53:04;;;;;;;13.50;9.73;;;;;;;16.74;82.27;98329.38;4859028;29;20036;-92
2023/06/29 02:55:31;;;;;;;16.23;9.37;;;;;;;16.80;81.93;98352.72;4838541;29;20508;-93
2023/06/29 02:57:58;;;;;;;13.75;8.75;;;;;;;16.82;81.99;98346.81;4871475;29;20534;-90
2023/06/29 03:00:24;;;;;;;;;;;;;;;16.87;82.30;98371.34;4854975;29;20061;-92
2023/06/29 03:02:50;;;;;;;11.70;8.33;;;;;;;16.72;82.33;98350.22;4845952;29;20460;-92
2023/06/29 03:05:26;;;;;;;11.48;7.97;;;;;;;16.61;81.66;98352.88;4847258;29;20451;-91
2023/06/29 03:07:52;;;;;;;11.95;7.22;;;;;;;16.49;81.59;98344.84;4889697;29;20040;-93
2023/06/29 03:10:18;;;;;;;14.18;7.82;;;;;;;16.51;82.16;98343.28;4907397;29;20044;-88
2023/06/29 03:12:45;;;;;;;9.10;6.95;;;;;;;16.56;81.08;98367.81;4902514;29;20044;-92
2023/06/29 03:15:26;;;;;;;13.55;8.98;;;;;;;16.55;81.52;98349.66;4906081;29;20060;-90
2023/06/29 03:18:17;;;;;;;16.17;7.75;;;;;;;16.70;79.96;98385.69;4884534;29;20041;-93
2023/06/29 03:20:44;;;;;;;9.70;7.47;;;;;;;16.50;81.48;98349.22;4913139;29;20043;-89
2023/06/29 03:23:35;;;;;;;13.50;8.45;;;;;;;16.54;80.70;98361.06;4903655;29;20088;-88
2023/06/29 03:26:01;;;;;;;12.23;8.52;;;;;;;16.51;80.54;98359.84;4896810;29;20139;-90
2023/06/29 03:28:28;;;;;;;13.43;8.38;;;;;;;16.75;80.61;98386.16;4898801;29;20515;-89
2023/06/29 03:30:54;;;;;;;12.10;8.70;;;;;;;16.68;80.25;98381.34;4916044;29;20055;-90
2023/06/29 03:33:20;;;;;;;12.00;8.87;;;;;;;16.59;80.91;98364.28;4883856;29;20686;-90
2023/06/29 03:35:54;;;;;;;15.07;8.80;;;;;;;16.68;81.31;98373.06;4915403;29;20048;-91
2023/06/29 03:38:20;;;;;;;13.85;8.43;;;;;;;16.68;80.88;98359.25;4912809;29;20048;-91
2023/06/29 03:41:11;;;;;;;12.95;8.27;;;;;;;16.94;81.23;98387.19;4916817;29;20055;-89
2023/06/29 03:43:37;;;;;;;13.75;8.95;;;;;;;16.89;80.37;98389.09;4914473;29;20518;-91
2023/06/29 03:46:03;;;;;;;14.13;8.52;;;;;;;16.57;80.25;98352.84;4903949;29;20043;-90
2023/06/29 03:48:29;;;;;;;19.13;9.47;;;;;;;16.68;79.58;98366.75;4918666;29;20059;-88
2023/06/29 03:50:57;;;;;;;18.77;9.33;;;;;;;16.79;80.33;98389.00;4908299;29;20118;-91
2023/06/29 03:53:23;;;;;;;12.48;8.95;;;;;;;16.81;80.70;98392.16;4941857;29;20142;-90
2023/06/29 03:55:49;;;;;;;11.73;8.43;;;;;;;16.70;80.37;98378.22;4924394;29;20524;-90
2023/06/29 03:58:15;;;;;;;15.07;8.43;;;;;;;16.62;79.97;98371.00;4924436;29;20220;-91
2023/06/29 04:00:45;;;;;;;10.93;8.27;;;;;;;16.51;80.17;98356.31;4907606;29;20055;-90
2023/06/29 04:03:11;;;;;;;17.05;8.32;;;;;;;16.61;80.39;98363.91;4942231;29;20508;-91
2023/06/29 04:05:37;;;;;;;10.40;7.90;;;;;;;16.49;79.96;98355.88;4945353;29;20042;-90
2023/06/29 04:08:04;;;;;;;12.10;7.95;;;;;;;16.71;79.74;98392.81;4935107;29;20066;-91
2023/06/29 04:10:35;;;;;;;12.88;7.63;;;;;;;16.70;79.53;98375.44;4943629;29;20043;-91
2023/06/29 04:13:01;;;;;;;10.80;7.43;;;;;;;16.73;79.05;98376.66;4945122;29;20043;-92
2023/06/29 04:15:27;;;;;;;17.05;8.55;;;;;;;16.70;79.74;98353.38;4942494;29;20467;-90
2023/06/29 04:17:53;;;;;;;12.02;8.05;;;;;;;16.64;79.11;98339.13;4943325;29;20035;-91
2023/06/29 04:20:19;;;;;;;13.90;7.88;;;;;;;16.82;79.21;98353.16;4941502;29;20420;-91
2023/06/29 04:22:45;;;;;;;12.40;7.88;;;;;;;16.89;79.49;98346.91;4945019;29;20039;-93
2023/06/29 04:25:12;;;;;;;9.65;6.85;;;;;;;16.69;78.67;98324.19;4955899;29;20038;-90
2023/06/29 04:27:38;;;;;;;12.73;6.90;;;;;;;17.01;78.71;98356.88;4927667;29;20106;-92
2023/06/29 04:30:05;;;;;;;12.70;7.57;;;;;;;17.22;78.12;98381.13;4922889;29;20077;-93
2023/06/29 04:32:32;;;;;;;10.57;6.70;;;;;;;17.03;77.77;98340.75;4931106;29;20070;-91
2023/06/29 04:35:01;;;;;;;12.98;7.28;;;;;;;17.21;77.88;98372.06;4946457;29;20082;-88
2023/06/29 04:37:36;;;;;;;8.93;6.35;;;;;;;17.20;77.40;98366.94;4951919;29;20509;-91
2023/06/29 04:40:07;;;;;;;10.88;5.65;;;;;;;17.23;77.14;98360.66;4943192;29;20047;-89
2023/06/29 04:42:33;;;;;;;14.02;6.82;;;;;;;17.21;77.62;98338.91;4924568;29;20067;-89
2023/06/29 04:45:00;;;;;;;14.20;7.30;;;;;;;17.72;77.38;98395.41;4957991;28;20035;-90
2023/06/29 04:47:32;;;;;;;10.55;6.40;;;;;;;17.69;76.12;98365.78;4941143;29;21148;-90
2023/06/29 04:49:59;;;;;;;11.18;6.65;;;;;;;17.77;74.89;98376.50;4903945;29;20060;-91
2023/06/29 04:52:26;;;;;;;12.65;6.60;;;;;;;17.84;75.20;98359.97;4879485;29;20186;-92
2023/06/29 04:54:54;;;;;;;9.40;6.63;;;;;;;18.15;76.07;98357.81;4911324;29;20081;-91
2023/06/29 04:57:21;;;;;;;10.38;7.50;;;;;;;18.27;73.83;98349.16;4899482;29;20044;-91
2023/06/29 04:59:47;;;;;;;13.90;7.70;;;;;;;18.38;73.51;98353.97;4888082;29;20574;-89
2023/06/29 05:02:13;;;;;;;11.80;7.83;;;;;;;18.47;74.07;98346.88;4889753;29;20083;-88
2023/06/29 05:04:39;;;;;;;9.80;7.00;;;;;;;18.81;72.09;98377.09;4885420;29;20036;-86
2023/06/29 05:07:05;;;;;;;10.90;7.30;;;;;;;18.64;72.11;98339.03;4903839;29;20123;-87
2023/06/29 05:09:31;;;;;;;12.43;7.07;;;;;;;18.78;71.05;98344.66;4912754;29;20036;-91
2023/06/29 05:11:57;;;;;;;13.23;7.10;;;;;;;18.80;71.16;98353.34;4888157;29;20585;-87
2023/06/29 05:14:24;;;;;;;13.27;7.27;;;;;;;19.04;70.09;98385.06;4912562;29;20124;-91
2023/06/29 05:16:50;;;;;;;10.80;6.68;;;;;;;18.95;70.11;98370.78;4891600;29;20612;-94
2023/06/29 05:19:17;;;;;;;;;;;;;;;18.86;68.60;98384.22;4912466;29;20064;-88
2023/06/29 05:21:43;;;;;;;9.63;6.13;;;;;;;18.72;68.89;98369.13;4911014;29;19924;-90
2023/06/29 05:24:14;;;;;;;11.60;7.07;;;;;;;18.95;68.32;98398.50;4880716;29;20032;-90
2023/06/29 05:26:42;;;;;;;13.57;7.30;;;;;;;18.82;67.79;98373.13;4919370;28;20059;-90
2023/06/29 05:29:10;;;;;;;10.77;7.07;;;;;;;18.54;68.68;98329.50;4925074;29;20051;-92
2023/06/29 05:31:40;;;;;;;16.80;10.15;;;;;;;18.83;67.63;98363.63;4909754;29;20139;-92
2023/06/29 05:34:07;;;;;;;15.48;10.60;;;;;;;18.83;67.93;98368.38;4919606;29;20126;-93
2023/06/29 05:36:33;;;;;;;15.47;9.33;;;;;;;18.97;68.43;98385.03;4925944;29;20048;-90
2023/06/29 05:39:49;;;;;;;15.47;8.67;;;;;;;19.11;67.77;98398.94;4924721;28;20046;-91
2023/06/29 05:42:29;;;;;;;12.32;7.80;;;;;;;18.96;67.93;98387.00;4874509;29;20045;-94
2023/06/29 05:44:55;;;;;;;13.80;8.20;;;;;;;18.97;67.68;98377.53;4880388;29;20061;-88
2023/06/29 05:47:23;;;;;;;12.02;7.88;;;;;;;19.13;68.47;98370.81;4889327;29;20084;-91
2023/06/29 05:49:49;;;;;;;21.38;8.18;;;;;;;19.24;68.30;98355.03;4857709;29;20045;-93
2023/06/29 05:52:24;;;;;;;22.30;8.55;;;;;;;19.32;67.74;98334.44;4857479;29;20092;-95
2023/06/29 05:54:50;;;;;;;16.85;8.50;;;;;;;19.79;65.99;98382.38;4857934;29;20145;-91
2023/06/29 05:57:16;;;;;;;20.87;8.83;;;;;;;19.64;65.44;98355.84;4875132;29;20051;-92
2023/06/29 05:59:51;;;;;;;13.07;8.40;;;;;;;19.65;64.93;98355.44;4888297;29;20383;-93
2023/06/29 06:02:33;;;;;;;15.63;7.70;;;;;;;19.61;65.11;98345.53;4883206;29;20053;-95
2023/06/29 06:05:00;;;;;;;14.95;8.13;;;;;;;19.88;65.47;98381.97;4872460;29;20075;-90
2023/06/29 06:07:30;;;;;;;21.77;7.88;;;;;;;20.07;64.63;98395.41;4856213;29;20148;-93
2023/06/29 06:10:06;;;;;;;16.05;7.55;;;;;;;19.93;63.23;98398.19;4863476;29;20052;-93
2023/06/29 06:12:32;;;;;;;21.10;9.30;;;;;;;20.04;62.64;98395.44;4840800;29;20114;-92
2023/06/29 06:14:59;;;;;;;15.80;8.45;;;;;;;20.01;63.46;98371.25;4868123;29;20088;-92
2023/06/29 06:17:31;;;;;;;16.10;7.90;;;;;;;20.00;62.86;98353.00;4853671;29;20049;-93
2023/06/29 06:19:59;;;;;;;17.75;7.90;;;;;;;20.10;62.93;98368.88;4916749;29;20047;-91
2023/06/29 06:22:25;;;;;;;13.88;7.93;;;;;;;20.12;62.85;98363.69;4903420;29;20127;-91
2023/06/29 06:24:51;;;;;;;;;;;;;;;20.37;62.49;98400.50;4938440;29;20102;-90
2023/06/29 06:27:17;;;;;;;10.38;6.30;;;;;;;20.24;63.49;98366.03;4948103;29;19970;-90
2023/06/29 06:29:43;;;;;;;14.07;6.50;;;;;;;20.10;61.61;98360.53;4879762;29;20131;-87
2023/06/29 06:32:10;;;;;;;10.80;6.70;;;;;;;20.36;62.17;98398.13;4906746;29;20512;-88
2023/06/29 06:34:43;;;;;;;21.73;7.50;;;;;;;20.12;62.10;98360.91;4924079;29;20044;-87
2023/06/29 06:37:11;;;;;;;9.80;6.82;;;;;;;20.32;59.75;98378.69;4917232;29;20304;-86
2023/06/29 06:39:37;;;;;;;13.95;8.10;;;;;;;20.51;60.77;98393.34;4922080;29;20533;-88
2023/06/29 06:42:03;;;;;;;16.53;8.50;;;;;;;20.36;61.52;98393.38;4923097;29;20051;-89
2023/06/29 06:44:29;;;;;;;20.42;8.40;;;;;;;20.29;59.44;98359.28;4914978;29;20040;-89
2023/06/29 06:46:55;;;;;;;13.57;7.67;;;;;;;20.23;60.74;98370.03;4911051;29;20044;-92
2023/06/29 06:49:21;;;;;;;14.40;7.97;;;;;;;20.29;61.54;98360.06;4914856;29;20671;-88
2023/06/29 06:51:49;;;;;;;26.47;8.10;;;;;;;20.51;61.13;98374.72;4912975;29;20136;-92
2023/06/29 06:54:17;;;;;;;14.60;6.72;;;;;;;20.77;61.47;98387.28;4912628;29;20071;-91
2023/06/29 06:56:43;;;;;;;22.23;7.18;;;;;;;20.95;60.37;98392.75;4923318;29;20036;-90
2023/06/29 06:59:09;;;;;;;15.20;7.27;;;;;;;20.97;60.17;98382.03;4907280;29;20056;-89
2023/06/29 07:01:41;;;;;;;18.65;8.02;;;;;;;21.28;59.50;98405.25;4925330;29;20307;-93
2023/06/29 07:04:07;;;;;;;13.20;8.40;;;;;;;21.02;55.42;98369.69;4930451;29;20046;-90
2023/06/29 07:06:46;;;;;;;14.13;7.80;;;;;;;21.03;56.96;98388.75;4928587;29;20043;-93
2023/06/29 07:09:14;;;;;;;17.13;8.05;;;;;;;20.96;59.14;98379.66;4926583;29;20084;-90
2023/06/29 07:11:41;;;;;;;14.85;7.43;;;;;;;21.11;59.02;98381.16;4926247;29;20035;-93
2023/06/29 07:14:23;;;;;;;11.98;7.05;;;;;;;21.25;57.32;98394.16;4932164;29;20083;-96
2023/06/29 07:16:49;;;;;;;11.60;6.50;;;;;;;21.01;57.43;98357.78;4937651;29;20032;-95
2023/06/29 07:19:24;;;;;;;14.52;7.22;;;;;;;21.19;56.71;98371.59;4935127;28;20028;-89
2023/06/29 07:22:10;;;;;;;12.85;6.85;;;;;;;21.42;56.80;98393.28;4925949;28;20058;-91
2023/06/29 07:26:25;;;;;;;12.82;7.05;;;;;;;21.44;59.35;98373.41;4924897;29;20052;-91
2023/06/29 07:28:54;;;;;;;16.83;7.25;;;;;;;21.39;56.00;98368.28;4906090;29;20148;-91
2023/06/29 07:31:52;;;;;;;9.10;6.22;;;;;;;21.50;56.19;98380.13;4930694;28;20024;-91
2023/06/29 07:34:23;;;;;;;11.50;6.93;;;;;;;21.63;56.54;98372.09;4903487;29;20052;-92
2023/06/29 07:36:57;;;;;;;10.75;6.57;;;;;;;21.39;56.74;98332.97;4890822;29;20033;-91
2023/06/29 07:39:23;;;;;;;11.07;6.22;;;;;;;21.51;56.42;98334.44;4870538;29;20053;-90
2023/06/29 07:45:30;;;;;;;13.57;6.32;;;;;;;21.80;56.19;98346.88;4881792;29;20341;-90
2023/06/29 07:47:59;;;;;;;11.77;6.28;;;;;;;21.85;55.26;98379.03;4886844;29;20044;-91
2023/06/29 07:50:27;;;;;;;15.23;6.22;;;;;;;21.75;57.26;98377.13;4882100;29;20248;-91
2023/06/29 07:52:56;;;;;;;;;;;;;;;21.71;55.93;98366.03;4916050;29;20064;-90
2023/06/29 07:55:22;;;;;;;11.43;6.28;;;;;;;21.55;56.52;98338.75;4917716;29;19928;-90
2023/06/29 07:58:13;;;;;;;11.68;5.70;;;;;;;21.81;55.70;98370.72;4888248;29;20053;-90
2023/06/29 08:00:40;;;;;;;21.50;5.85;;;;;;;21.94;56.42;98368.22;4873149;29;20052;-88
2023/06/29 08:03:06;;;;;;;12.77;5.35;;;;;;;22.17;56.49;98369.59;4882328;29;20076;-90
2023/06/29 08:05:43;;;;;;;15.48;5.72;;;;;;;22.18;54.21;98358.03;4924167;29;20542;-89
2023/06/29 08:08:29;;;;;;;23.67;10.38;;;;;;;22.23;55.24;98367.94;4953216;29;20060;-90
2023/06/29 08:10:56;;;;;;;10.80;5.30;;;;;;;22.08;54.70;98342.22;4931468;29;20047;-90
2023/06/29 08:13:38;;;;;;;6.63;4.57;;;;;;;22.04;54.12;98319.22;4958161;28;20099;-91
2023/06/29 08:16:14;;;;;;;9.82;5.20;;;;;;;22.56;55.20;98365.59;4958656;28;20099;-89
2023/06/29 08:18:54;;;;;;;9.90;4.68;;;;;;;22.66;52.91;98371.03;4951067;28;20039;-89
2023/06/29 08:21:23;;;;;;;8.52;4.82;;;;;;;22.57;53.44;98328.94;4966438;28;20074;-90
2023/06/29 08:28:11;;;;;;;14.60;5.00;;;;;;;22.82;53.25;98344.56;4964778;28;20059;-91
2023/06/29 08:30:39;;;;;;;8.80;4.05;;;;;;;22.71;50.63;98333.53;4938053;29;20043;-90
2023/06/29 08:36:18;;;;;;;6.18;3.60;;;;;;;23.24;49.17;98345.94;4952542;28;20456;-91
2023/06/29 08:38:51;;;;;;;7.85;3.85;;;;;;;23.56;49.12;98355.81;4953253;28;20092;-90
2023/06/29 08:41:23;;;;;;;7.93;4.18;;;;;;;23.54;48.75;98330.34;4916743;29;20158;-91
2023/06/29 08:44:39;;;;;;;6.28;4.20;;;;;;;23.50;49.13;98327.59;4945667;29;20034;-92
2023/06/29 08:47:18;;;;;;;11.63;4.50;;;;;;;23.90;49.75;98348.06;4920444;29;20083;-89
2023/06/29 08:49:46;;;;;;;8.93;4.13;;;;;;;23.91;49.98;98340.50;4935114;28;20056;-89
2023/06/29 08:52:17;;;;;;;9.13;4.85;;;;;;;24.19;49.87;98357.91;4894349;28;20032;-90
2023/06/29 08:54:44;;;;;;;11.63;4.70;;;;;;;23.91;48.56;98318.16;4921039;29;20073;-89
2023/06/29 08:57:13;;;;;;;9.63;4.78;;;;;;;23.95;47.21;98357.19;4895611;29;20062;-89
2023/06/29 08:59:53;;;;;;;13.27;4.65;;;;;;;23.68;48.99;98344.88;4907998;29;20096;-89
2023/06/29 09:02:33;;;;;;;7.85;4.50;;;;;;;23.37;49.51;98335.00;4898481;29;20048;-91
2023/06/29 09:05:29;;;;;;;8.75;4.85;;;;;;;23.09;49.61;98286.84;4904619;29;20052;-90
2023/06/29 09:08:10;;;;;;;16.57;5.70;;;;;;;23.35;50.09;98343.00;4916659;29;20056;-90
2023/06/29 09:10:41;;;;;;;7.47;4.97;;;;;;;23.33;50.42;98325.91;4877644;29;20335;-91
2023/06/29 09:13:09;;;;;;;8.23;4.75;;;;;;;23.45;51.30;98308.59;4878550;29;20052;-90
2023/06/29 09:15:39;;;;;;;16.88;5.90;;;;;;;23.48;48.18;98304.94;4890713;29;20041;-91
2023/06/29 09:18:07;;;;;;;11.85;5.10;;;;;;;23.63;48.85;98302.69;4906914;29;20061;-92
2023/06/29 09:20:35;;;;;;;10.50;4.57;;;;;;;23.54;48.78;98286.50;4906424;29;20057;-90
2023/06/29 09:23:04;;;;;;;6.45;4.20;;;;;;;23.80;49.30;98298.81;4906445;29;20605;-90
2023/06/29 09:25:36;;;;;;;;;;;;;;;24.03;48.20;98317.53;4909535;29;20056;-90
2023/06/29 09:28:06;;;;;;;8.35;4.72;;;;;;;23.85;47.68;98280.81;4894152;29;19962;-90
2023/06/29 09:30:43;;;;;;;11.35;4.85;;;;;;;23.97;48.33;98316.44;4911191;29;20044;-90
2023/06/29 09:33:16;;;;;;;9.77;4.40;;;;;;;23.96;49.18;98292.53;4874188;29;20108;-90
2023/06/29 09:35:53;;;;;;;11.68;5.10;;;;;;;24.02;48.28;98287.25;4877064;29;20053;-89
2023/06/29 09:38:20;;;;;;;10.10;4.38;;;;;;;23.97;48.01;98288.53;4875636;29;20064;-91
2023/06/29 09:40:48;;;;;;;9.50;5.63;;;;;;;23.55;49.03;98262.19;4896304;29;20040;-91
2023/06/29 09:43:36;;;;;;;14.15;5.43;;;;;;;23.64;48.78;98263.22;4910246;29;20035;-89
2023/06/29 09:46:09;;;;;;;14.65;5.65;;;;;;;23.80;51.07;98267.31;4905595;29;20552;-89
2023/06/29 09:48:48;;;;;;;10.43;5.75;;;;;;;23.83;49.76;98270.03;4891032;29;20088;-90
2023/06/29 09:51:21;;;;;;;14.07;5.75;;;;;;;23.78;47.39;98270.56;4939875;29;20131;-90
2023/06/29 09:53:48;;;;;;;15.10;5.47;;;;;;;23.76;48.78;98259.03;4969185;29;20043;-91
2023/06/29 09:56:26;;;;;;;15.20;6.07;;;;;;;23.71;47.77;98241.97;4952359;29;20062;-91
2023/06/29 09:58:55;;;;;;;11.05;6.90;;;;;;;23.78;48.74;98230.72;4948952;29;20405;-90
2023/06/29 10:01:28;;;;;;;16.67;6.38;;;;;;;23.82;47.59;98237.78;4948719;29;20035;-90
2023/06/29 10:03:56;;;;;;;15.23;7.20;;;;;;;24.02;48.77;98253.75;4953890;29;20051;-89
2023/06/29 10:06:42;;;;;;;13.32;6.78;;;;;;;23.89;46.76;98256.41;4950270;29;20051;-89
2023/06/29 10:09:19;;;;;;;16.42;8.38;;;;;;;23.96;48.76;98259.03;4970270;29;20054;-90
2023/06/29 10:12:04;;;;;;;11.05;7.30;;;;;;;24.21;47.84;98277.31;4970755;28;20038;-87
2023/06/29 10:14:34;;;;;;;16.50;6.13;;;;;;;24.20;45.47;98251.38;4950564;29;20130;-89
2023/06/29 10:17:08;;;;;;;28.08;8.23;;;;;;;24.22;46.23;98239.78;4952046;29;20051;-90
2023/06/29 10:19:40;;;;;;;14.55;8.40;;;;;;;24.06;46.33;98235.69;4934723;29;20071;-90
2023/06/29 10:22:17;;;;;;;18.30;9.27;;;;;;;24.04;49.82;98252.13;4919296;29;20043;-89
2023/06/29 10:25:00;;;;;;;12.18;7.63;;;;;;;24.01;47.26;98218.69;4935862;29;20066;-89
2023/06/29 10:27:29;;;;;;;17.38;8.73;;;;;;;24.05;46.66;98208.22;4922243;29;20055;-88
2023/06/29 10:30:07;;;;;;;18.45;7.88;;;;;;;24.06;47.19;98202.19;5065567;23;20046;-90
2023/06/29 10:32:40;;;;;;;21.35;7.90;;;;;;;24.03;48.03;98227.41;4979197;28;20408;-92
2023/06/29 10:35:19;;;;;;;19.98;8.02;;;;;;;23.85;47.32;98222.19;4994633;28;20030;-88
2023/06/29 10:38:10;;;;;;;14.93;6.30;;;;;;;23.72;47.43;98208.09;4994072;28;20077;-93
2023/06/29 10:40:46;;;;;;;18.70;6.63;;;;;;;23.80;47.72;98247.78;4978590;28;20151;-94
2023/06/29 10:43:16;;;;;;;21.33;5.88;;;;;;;23.72;47.90;98241.56;4993617;28;20038;-91
2023/06/29 10:45:51;;;;;;;7.55;4.70;;;;;;;23.28;47.20;98184.16;4957187;28;20500;-90
2023/06/29 10:51:00;;;;;;;10.45;4.25;;;;;;;23.44;46.54;98212.16;4990500;28;20051;-90
2023/06/29 10:53:37;;;;;;;13.60;4.68;;;;;;;23.20;46.93;98173.16;4972583;28;20062;-92
2023/06/29 10:56:04;;;;;;;13.80;4.55;;;;;;;23.38;47.47;98205.53;4974782;28;20066;-90
2023/06/29 10:58:37;;;;;;;;;;;;;;;23.36;48.45;98219.88;4960400;28;20283;-92
2023/06/29 11:01:03;;;;;;;11.63;4.72;;;;;;;23.29;50.56;98228.38;4975979;28;20009;-90
2023/06/29 11:03:51;;;;;;;11.70;4.30;;;;;;;23.16;49.86;98228.19;4958708;28;20090;-89
2023/06/29 11:06:19;;;;;;;8.40;4.38;;;;;;;22.97;50.69;98220.53;4978357;28;20106;-90
2023/06/29 11:08:48;;;;;;;16.25;4.75;;;;;;;22.70;51.59;98207.41;4971594;28;20045;-91
2023/06/29 11:11:14;;;;;;;10.88;4.80;;;;;;;22.67;54.74;98226.94;4955163;29;20567;-91
2023/06/29 11:13:41;;;;;;;7.78;4.32;;;;;;;22.44;54.33;98222.09;4968809;28;20043;-91
2023/06/29 11:16:07;;;;;;;;;;;;;;;22.39;57.56;98242.09;4952405;29;20050;-88
2023/06/29 11:18:35;;;;;;;10.85;5.32;;;;;;;22.02;57.74;98218.66;4944479;29;20420;-93
2023/06/29 11:21:04;;;;;;;16.63;7.38;;;;;;;21.99;60.21;98233.41;4916787;29;20051;-94
2023/06/29 11:23:32;;;;;;;9.82;6.60;;;;;;;21.69;60.16;98206.31;4932155;29;20103;-92
2023/06/29 11:26:02;;;;;;;15.40;7.03;;;;;;;21.57;61.98;98211.22;4925265;29;20042;-93
2023/06/29 11:28:41;;;;;;;17.10;6.55;;;;;;;21.38;62.87;98247.16;4942326;29;20075;-94
2023/06/29 11:31:44;;;;;;;15.15;5.80;;;;;;;21.09;63.47;98295.44;4955226;29;20047;-93
2023/06/29 11:34:15;;;;;;;18.50;5.03;;;;;;;20.36;64.36;98362.03;4911732;29;20075;-94
2023/06/29 11:36:50;;;;;;;21.00;4.22;;;;;;;19.07;63.62;98325.31;4902883;29;20855;-93
2023/06/29 11:39:17;;;;;;;;;;;;;;;18.60;65.26;98371.44;4924641;29;20043;-91
2023/06/29 11:41:47;;;;;;;20.45;4.03;;;;;;;17.72;66.93;98304.97;4971236;28;19958;-94
2023/06/29 11:44:16;;;;;;;14.20;3.13;;;;;;;17.38;68.85;98279.47;4927208;28;20162;-92
2023/06/29 11:46:46;;;;;;;11.93;3.20;;;;;;;17.70;68.69;98312.84;4942958;28;20102;-95
2023/06/29 11:49:12;;;;;;;11.13;3.13;;;;;;;17.36;69.99;98303.94;4972383;28;20050;-93
2023/06/29 11:51:42;;;;;;;7.05;2.72;;;;;;;17.28;70.40;98288.47;4958993;28;20034;-95
2023/06/29 11:54:09;;;;;;;6.85;2.97;;;;;;;16.99;71.05;98279.97;4937127;29;20023;-94
2023/06/29 11:56:40;;;;;;;11.50;4.18;;;;;;;17.11;72.18;98293.47;4937179;29;20113;-93
2023/06/29 11:59:12;;;;;;;9.93;4.70;;;;;;;16.88;70.92;98243.19;4951485;28;20109;-90
2023/06/29 12:01:40;;;;;;;12.95;5.10;;;;;;;17.03;70.50;98260.66;4933244;29;20046;-93
2023/06/29 12:04:09;;;;;;;10.13;5.05;;;;;;;17.19;70.87;98288.81;4935586;29;20043;-95
2023/06/29 12:06:48;;;;;;;14.35;5.20;;;;;;;17.26;69.89;98277.81;4919389;28;20058;-95
2023/06/29 12:09:15;;;;;;;12.00;4.45;;;;;;;16.99;67.13;98222.00;4936398;28;20494;-92
2023/06/29 12:11:46;;;;;;;13.60;5.10;;;;;;;17.33;70.77;98266.03;4947182;28;20043;-90